Time;durP1;ratioP1;P1;durP2;ratioP2;P2;SDS_P1;SDS_P2;PMS_P1;PMS_P2;Temp;Humidity;BMP_temperature;BMP_pressure;BME280_temperature;BME280_humidity;BME280_pressure;Samples;Min_cycle;Max_cycle;Signal;HPM_P1;HPM_P2
2021/11/22 00:02:18;;;;;;;5.55;2.10;;;8.90;96.80;;;;;;5070189;28;20031;-71
2021/11/22 00:04:43;;;;;;;5.13;1.85;;;8.90;96.80;;;;;;5070181;28;20358;-71
2021/11/22 00:07:11;;;;;;;6.03;2.05;;;8.90;96.70;;;;;;5069305;28;20044;-70
2021/11/22 00:09:37;;;;;;;2.22;1.52;;;8.90;96.70;;;;;;5070692;28;20021;-70
2021/11/22 00:12:03;;;;;;;5.85;1.88;;;8.80;96.60;;;;;;5070049;28;20493;-71
2021/11/22 00:14:29;;;;;;;4.63;1.88;;;8.80;96.80;;;;;;5070001;28;20389;-71
2021/11/22 00:16:55;;;;;;;7.97;2.25;;;8.70;97.10;;;;;;5072391;28;20172;-71
2021/11/22 00:19:20;;;;;;;3.45;2.15;;;8.60;96.80;;;;;;5073804;28;20433;-70
2021/11/22 00:21:46;;;;;;;7.25;1.83;;;8.60;96.80;;;;;;5073524;28;20073;-69
2021/11/22 00:24:12;;;;;;;5.72;2.03;;;8.60;96.90;;;;;;5073951;28;20107;-71
2021/11/22 00:26:37;;;;;;;2.97;1.70;;;8.50;96.90;;;;;;5073490;28;20048;-71
2021/11/22 00:29:03;;;;;;;5.45;2.10;;;8.50;96.90;;;;;;5072167;28;20049;-71
2021/11/22 00:31:29;;;;;;;4.82;1.95;;;8.50;96.90;;;;;;5072507;28;20220;-72
2021/11/22 00:33:56;;;;;;;4.45;2.13;;;8.50;96.90;;;;;;5073474;28;20020;-71
2021/11/22 00:36:22;;;;;;;5.55;2.42;;;8.50;96.90;;;;;;5072786;28;20020;-71
2021/11/22 00:38:48;;;;;;;6.03;2.03;;;8.50;96.90;;;;;;5073250;28;20374;-70
2021/11/22 00:41:13;;;;;;;9.68;2.55;;;8.50;96.80;;;;;;5073202;28;20062;-69
2021/11/22 00:43:39;;;;;;;6.78;2.53;;;8.50;96.70;;;;;;5073271;28;20100;-71
2021/11/22 00:46:07;;;;;;;5.85;2.00;;;8.50;96.80;;;;;;5073499;28;20029;-70
2021/11/22 00:48:34;;;;;;;5.75;2.17;;;8.40;96.90;;;;;;5072629;28;20028;-70
2021/11/22 00:51:02;;;;;;;3.47;2.17;;;8.40;96.90;;;;;;5072909;28;20036;-71
2021/11/22 00:53:29;;;;;;;4.60;2.33;;;8.40;96.80;;;;;;5072384;28;20044;-70
2021/11/22 00:55:56;;;;;;;6.82;2.60;;;8.40;96.90;;;;;;5073154;28;20366;-70
2021/11/22 00:58:22;;;;;;;4.72;2.42;;;8.30;96.90;;;;;;5073088;28;20025;-71
2021/11/22 01:00:47;;;;;;;9.32;3.72;;;8.30;96.90;;;;;;5072862;28;20016;-71
2021/11/22 01:03:14;;;;;;;4.93;2.70;;;8.30;97.10;;;;;;5073227;28;20031;-70
2021/11/22 01:05:40;;;;;;;5.50;3.03;;;8.30;97.30;;;;;;5072964;28;20024;-69
2021/11/22 01:08:06;;;;;;;7.93;2.33;;;8.30;97.20;;;;;;5072781;28;20082;-70
2021/11/22 01:10:33;;;;;;;6.50;2.47;;;8.30;97.20;;;;;;5072685;28;20469;-71
2021/11/22 01:12:59;;;;;;;4.55;2.58;;;8.40;97.30;;;;;;5072780;28;20025;-71
2021/11/22 01:15:25;;;;;;;3.90;2.67;;;8.40;97.20;;;;;;5073088;28;20090;-71
2021/11/22 01:17:52;;;;;;;4.85;2.50;;;8.40;97.10;;;;;;5072459;28;20119;-71
2021/11/22 01:20:21;;;;;;;3.85;2.42;;;8.40;97.10;;;;;;5072780;28;20040;-71
2021/11/22 01:22:47;;;;;;;3.80;2.40;;;8.40;97.20;;;;;;5072493;28;20114;-70
2021/11/22 01:25:14;;;;;;;4.97;2.30;;;8.40;97.20;;;;;;5072340;28;20071;-70
2021/11/22 01:27:40;;;;;;;8.37;2.20;;;8.50;97.20;;;;;;5072723;28;20056;-71
2021/11/22 01:30:10;;;;;;;3.95;2.10;;;8.50;97.20;;;;;;5072154;28;20083;-71
2021/11/22 01:32:38;;;;;;;6.28;2.20;;;8.50;97.20;;;;;;5072339;28;20052;-71
2021/11/22 01:35:05;;;;;;;4.80;2.22;;;8.50;97.20;;;;;;5072203;28;20025;-71
2021/11/22 01:37:30;;;;;;;2.65;1.80;;;8.50;97.20;;;;;;5072132;28;20351;-71
2021/11/22 01:39:56;;;;;;;9.63;2.10;;;8.50;97.30;;;;;;5071921;28;20035;-71
2021/11/22 01:42:22;;;;;;;3.33;1.80;;;8.50;97.20;;;;;;5072429;28;20024;-71
2021/11/22 01:44:47;;;;;;;6.63;1.77;;;8.60;97.10;;;;;;5072013;28;20075;-71
2021/11/22 01:47:14;;;;;;;6.30;2.15;;;8.50;97.20;;;;;;5072217;28;20029;-71
2021/11/22 01:49:39;;;;;;;3.45;1.80;;;8.40;97.20;;;;;;5071691;28;20644;-71
2021/11/22 01:52:05;;;;;;;4.07;1.88;;;8.50;97.20;;;;;;5071890;28;20093;-70
2021/11/22 01:54:31;;;;;;;5.78;1.70;;;8.50;97.10;;;;;;5072336;28;20660;-71
2021/11/22 01:56:58;;;;;;;3.00;1.63;;;8.50;97.00;;;;;;5071826;28;20070;-71
2021/11/22 01:59:24;;;;;;;4.10;1.70;;;8.50;97.00;;;;;;5071792;28;20127;-71
2021/11/22 02:01:50;;;;;;;4.57;1.70;;;8.50;96.90;;;;;;5071724;28;20047;-71
2021/11/22 02:04:16;;;;;;;4.70;1.83;;;8.50;97.10;;;;;;5070753;28;20390;-71
2021/11/22 02:06:42;;;;;;;2.10;1.70;;;8.60;97.10;;;;;;5072268;28;20656;-71
2021/11/22 02:09:08;;;;;;;7.53;2.42;;;8.50;97.10;;;;;;5071832;28;20044;-70
2021/11/22 02:11:35;;;;;;;3.33;1.75;;;8.40;97.00;;;;;;5071374;28;20083;-72
2021/11/22 02:14:01;;;;;;;3.33;1.95;;;8.40;97.10;;;;;;5071553;28;20086;-70
2021/11/22 02:16:27;;;;;;;2.45;1.58;;;8.40;97.00;;;;;;5071671;28;20039;-71
2021/11/22 02:18:55;;;;;;;2.72;1.50;;;8.40;97.20;;;;;;5071481;28;20021;-71
2021/11/22 02:21:21;;;;;;;3.03;1.80;;;8.40;97.10;;;;;;5071993;28;20055;-71
2021/11/22 02:23:47;;;;;;;4.65;1.83;;;8.40;97.10;;;;;;5071659;28;20025;-71
2021/11/22 02:26:13;;;;;;;3.65;1.60;;;8.40;97.20;;;;;;5071195;28;20037;-71
2021/11/22 02:28:39;;;;;;;4.55;1.83;;;8.40;97.00;;;;;;5071138;28;20507;-71
2021/11/22 02:31:05;;;;;;;3.13;1.60;;;8.40;97.00;;;;;;5070181;28;20044;-71
2021/11/22 02:33:31;;;;;;;3.65;2.08;;;8.30;97.00;;;;;;5071537;28;20043;-70
2021/11/22 02:35:59;;;;;;;3.28;1.75;;;8.40;97.10;;;;;;5061821;28;20481;-71
2021/11/22 02:38:36;;;;;;;10.15;2.28;;;8.40;97.30;;;;;;5050823;28;20041;-71
2021/11/22 02:41:04;;;;;;;5.10;1.83;;;8.50;97.00;;;;;;5051085;28;20037;-71
2021/11/22 02:43:31;;;;;;;4.70;1.92;;;8.50;96.90;;;;;;5050992;28;20029;-71
2021/11/22 02:45:57;;;;;;;2.85;1.85;;;8.40;96.70;;;;;;5050744;28;20032;-71
2021/11/22 02:48:23;;;;;;;4.53;1.85;;;8.40;96.80;;;;;;5051483;28;20481;-71
2021/11/22 02:50:49;;;;;;;4.07;1.83;;;8.40;96.80;;;;;;5050821;28;20045;-71
2021/11/22 02:53:15;;;;;;;2.05;1.55;;;8.30;96.90;;;;;;5050901;28;20202;-71
2021/11/22 02:55:41;;;;;;;3.25;1.67;;;8.20;97.00;;;;;;5050943;28;20449;-71
2021/11/22 02:58:07;;;;;;;4.07;1.77;;;8.20;97.10;;;;;;5050829;28;20044;-71
2021/11/22 03:00:36;;;;;;;8.20;1.92;;;8.20;97.00;;;;;;5050996;28;20402;-71
2021/11/22 03:03:02;;;;;;;3.95;1.77;;;8.20;97.10;;;;;;5050657;28;20033;-71
2021/11/22 03:05:27;;;;;;;6.47;2.00;;;8.20;96.90;;;;;;5050584;28;20070;-71
2021/11/22 03:07:55;;;;;;;5.07;2.13;;;8.30;96.90;;;;;;5050584;28;20033;-71
2021/11/22 03:10:22;;;;;;;4.22;1.85;;;8.20;96.80;;;;;;5050735;28;20147;-71
2021/11/22 03:12:48;;;;;;;2.27;1.90;;;8.10;96.70;;;;;;5050476;28;20107;-71
2021/11/22 03:15:17;;;;;;;3.78;2.03;;;8.20;96.70;;;;;;5050993;28;20032;-71
2021/11/22 03:17:44;;;;;;;4.32;2.00;;;8.10;96.70;;;;;;5050439;28;20044;-72
2021/11/22 03:20:12;;;;;;;2.88;1.67;;;8.10;96.60;;;;;;5050394;28;20115;-71
2021/11/22 03:22:38;;;;;;;8.68;2.13;;;8.00;96.70;;;;;;5050435;28;20112;-70
2021/11/22 03:25:06;;;;;;;2.72;1.85;;;8.00;96.80;;;;;;5050320;28;20132;-70
2021/11/22 03:27:34;;;;;;;3.28;1.85;;;8.00;96.80;;;;;;5051002;28;20036;-71
2021/11/22 03:30:00;;;;;;;2.70;1.55;;;7.90;96.80;;;;;;5050144;28;20130;-71
2021/11/22 03:32:25;;;;;;;4.10;1.98;;;7.90;96.70;;;;;;5050542;28;20079;-71
2021/11/22 03:34:51;;;;;;;4.40;1.83;;;7.90;96.60;;;;;;5050316;28;20028;-71
2021/11/22 03:37:17;;;;;;;4.28;1.92;;;8.00;96.60;;;;;;5050550;28;20032;-71
2021/11/22 03:39:49;;;;;;;3.15;1.80;;;7.90;96.50;;;;;;5050710;28;20051;-70
2021/11/22 03:42:17;;;;;;;4.40;1.88;;;7.80;96.50;;;;;;5050582;28;20519;-71
2021/11/22 03:44:44;;;;;;;2.42;1.92;;;7.70;96.60;;;;;;5050293;28;20085;-71
2021/11/22 03:47:10;;;;;;;5.83;2.40;;;7.80;96.60;;;;;;5050225;28;20033;-71
2021/11/22 03:49:35;;;;;;;7.72;2.20;;;7.60;96.60;;;;;;5050091;28;20121;-71
2021/11/22 03:52:02;;;;;;;9.25;2.03;;;7.60;96.70;;;;;;5052921;28;20111;-70
2021/11/22 03:54:28;;;;;;;3.72;1.67;;;7.60;96.70;;;;;;5054724;28;20024;-70
2021/11/22 03:56:55;;;;;;;4.50;1.98;;;7.50;96.60;;;;;;5054077;28;20037;-71
2021/11/22 03:59:20;;;;;;;2.72;1.80;;;7.50;96.70;;;;;;5054364;28;20040;-70
2021/11/22 04:01:46;;;;;;;4.18;1.95;;;7.50;96.60;;;;;;5054033;28;20508;-70
2021/11/22 04:04:12;;;;;;;3.65;2.10;;;7.50;96.60;;;;;;5053841;28;20033;-69
2021/11/22 04:06:38;;;;;;;4.72;2.30;;;7.50;96.50;;;;;;5054457;28;20090;-71
2021/11/22 04:09:05;;;;;;;2.00;1.60;;;7.40;96.50;;;;;;5053919;28;20140;-71
2021/11/22 04:11:31;;;;;;;5.57;1.92;;;7.40;96.50;;;;;;5053957;28;20021;-71
2021/11/22 04:13:57;;;;;;;2.72;1.83;;;7.40;96.50;;;;;;5053999;28;20438;-70
2021/11/22 04:16:23;;;;;;;4.57;2.15;;;7.30;96.60;;;;;;5053835;28;20053;-70
2021/11/22 04:18:49;;;;;;;4.72;1.92;;;7.30;96.60;;;;;;5052674;28;20021;-71
2021/11/22 04:21:18;;;;;;;5.72;1.85;;;7.30;96.50;;;;;;5054088;28;20032;-71
2021/11/22 04:23:44;;;;;;;6.20;2.10;;;7.30;96.40;;;;;;5053230;28;20524;-71
2021/11/22 04:26:11;;;;;;;4.13;2.00;;;7.30;96.40;;;;;;5053472;28;20029;-72
2021/11/22 04:28:38;;;;;;;4.68;2.13;;;7.30;96.40;;;;;;5053081;28;20036;-70
2021/11/22 04:31:05;;;;;;;6.60;1.60;;;7.20;96.40;;;;;;5053778;28;20033;-70
2021/11/22 04:33:31;;;;;;;5.30;1.85;;;7.20;96.40;;;;;;5054158;28;20029;-70
2021/11/22 04:35:57;;;;;;;5.13;1.75;;;7.20;96.50;;;;;;5053890;28;20102;-71
2021/11/22 04:38:22;;;;;;;13.20;6.13;;;7.10;96.50;;;;;;5053335;28;20033;-71
2021/11/22 04:40:48;;;;;;;9.65;3.25;;;7.10;96.60;;;;;;5053402;28;20512;-71
2021/11/22 04:43:14;;;;;;;4.53;2.13;;;7.10;96.60;;;;;;5053165;28;20543;-71
2021/11/22 04:45:39;;;;;;;4.55;2.00;;;7.10;96.50;;;;;;5053667;28;20106;-71
2021/11/22 04:48:06;;;;;;;15.25;2.30;;;7.10;96.40;;;;;;5053166;28;20367;-71
2021/11/22 04:50:34;;;;;;;5.18;2.08;;;7.00;96.40;;;;;;5053158;28;20045;-70
2021/11/22 04:53:01;;;;;;;4.18;1.85;;;7.00;96.60;;;;;;5053248;28;20079;-71
2021/11/22 04:55:27;;;;;;;4.75;2.00;;;7.00;96.60;;;;;;5053106;28;20041;-72
2021/11/22 04:57:53;;;;;;;3.00;1.70;;;7.00;96.50;;;;;;5053177;28;20095;-70
2021/11/22 05:00:21;;;;;;;4.35;1.85;;;7.00;96.50;;;;;;5053265;28;20163;-70
2021/11/22 05:02:47;;;;;;;5.15;2.17;;;7.00;96.40;;;;;;5052419;28;20044;-71
2021/11/22 05:05:14;;;;;;;4.10;1.80;;;6.90;96.40;;;;;;5052911;28;20459;-72
2021/11/22 05:07:41;;;;;;;3.28;2.00;;;6.90;96.40;;;;;;5052775;28;20037;-71
2021/11/22 05:10:08;;;;;;;4.38;1.88;;;6.90;96.40;;;;;;5052625;28;20037;-70
2021/11/22 05:12:34;;;;;;;3.40;1.63;;;6.90;96.30;;;;;;5052973;28;20103;-71
2021/11/22 05:15:00;;;;;;;3.90;1.92;;;6.80;96.40;;;;;;5052591;28;20110;-70
2021/11/22 05:17:26;;;;;;;3.45;1.88;;;6.80;96.30;;;;;;5052831;28;20516;-70
2021/11/22 05:19:52;;;;;;;4.13;1.73;;;6.70;96.50;;;;;;5052901;28;20041;-71
2021/11/22 05:22:21;;;;;;;4.30;1.83;;;6.70;96.50;;;;;;5052489;28;20166;-70
2021/11/22 05:24:49;;;;;;;4.85;2.33;;;6.70;96.40;;;;;;5052599;28;20029;-71
2021/11/22 05:27:23;;;;;;;4.28;2.20;;;6.70;96.40;;;;;;5052948;28;20021;-70
2021/11/22 05:29:49;;;;;;;3.83;1.77;;;6.70;96.30;;;;;;5052064;28;20056;-70
2021/11/22 05:32:17;;;;;;;6.38;2.40;;;6.70;96.30;;;;;;5052303;28;20029;-70
2021/11/22 05:34:48;;;;;;;5.40;2.17;;;6.60;96.40;;;;;;5052486;28;20037;-71
2021/11/22 05:37:14;;;;;;;4.80;2.20;;;6.70;96.50;;;;;;5052050;28;20086;-70
2021/11/22 05:39:41;;;;;;;4.28;2.15;;;6.60;96.40;;;;;;5052857;28;20033;-71
2021/11/22 05:42:07;;;;;;;3.20;2.08;;;6.70;96.20;;;;;;5052687;28;20041;-71
2021/11/22 05:44:35;;;;;;;5.68;2.33;;;6.70;96.20;;;;;;5052206;28;20064;-71
2021/11/22 05:47:02;;;;;;;6.28;1.95;;;6.60;96.30;;;;;;5051013;28;20033;-71
2021/11/22 05:49:31;;;;;;;5.57;2.33;;;6.60;96.30;;;;;;5051923;28;20128;-72
2021/11/22 05:51:57;;;;;;;4.40;2.30;;;6.70;96.30;;;;;;5052148;28;20030;-72
2021/11/22 05:54:24;;;;;;;2.83;2.10;;;6.40;96.40;;;;;;5052489;28;20025;-71
2021/11/22 05:56:51;;;;;;;4.80;1.88;;;6.50;96.40;;;;;;5052015;28;20040;-72
2021/11/22 05:59:17;;;;;;;6.32;2.25;;;6.40;96.40;;;;;;5051769;28;20033;-71
2021/11/22 06:01:43;;;;;;;5.03;2.22;;;6.40;96.50;;;;;;5051757;28;20411;-72
2021/11/22 06:04:09;;;;;;;4.40;2.33;;;6.50;96.50;;;;;;5051702;28;20036;-72
2021/11/22 06:06:34;;;;;;;3.15;1.92;;;6.40;96.30;;;;;;5051229;28;20090;-71
2021/11/22 06:09:00;;;;;;;3.83;2.20;;;6.40;96.40;;;;;;5051439;28;20177;-70
2021/11/22 06:11:26;;;;;;;5.68;2.00;;;6.40;96.40;;;;;;5051819;28;20053;-70
2021/11/22 06:13:52;;;;;;;8.95;2.00;;;6.40;96.40;;;;;;5050635;28;20115;-71
2021/11/22 06:16:18;;;;;;;3.75;2.13;;;6.30;96.50;;;;;;5051266;28;20033;-71
2021/11/22 06:18:43;;;;;;;5.00;2.47;;;6.30;96.50;;;;;;5051204;28;20017;-71
2021/11/22 06:21:09;;;;;;;5.18;2.33;;;6.30;96.50;;;;;;5050918;28;20086;-71
2021/11/22 06:23:35;;;;;;;3.63;2.10;;;6.20;96.60;;;;;;5051404;28;20093;-71
2021/11/22 06:26:00;;;;;;;3.15;1.90;;;6.30;96.60;;;;;;5050337;28;20040;-71
2021/11/22 06:28:26;;;;;;;3.38;2.13;;;6.30;96.50;;;;;;5051580;28;20041;-71
2021/11/22 06:30:52;;;;;;;5.32;2.15;;;6.30;96.40;;;;;;5051192;28;20049;-71
2021/11/22 06:33:17;;;;;;;5.45;2.55;;;6.20;96.40;;;;;;5051772;28;20074;-71
2021/11/22 06:35:43;;;;;;;2.95;2.03;;;6.20;96.40;;;;;;5050577;28;20025;-72
2021/11/22 06:38:11;;;;;;;3.65;1.98;;;6.20;96.40;;;;;;5051340;28;20037;-72
2021/11/22 06:40:36;;;;;;;4.38;2.10;;;6.20;96.30;;;;;;5051483;28;20029;-72
2021/11/22 06:43:02;;;;;;;4.75;2.25;;;6.20;96.40;;;;;;5051570;28;20355;-73
2021/11/22 06:45:28;;;;;;;3.47;2.08;;;6.20;96.30;;;;;;5052285;28;20021;-72
2021/11/22 06:47:54;;;;;;;6.63;2.10;;;6.20;96.10;;;;;;5051498;28;20456;-73
2021/11/22 06:50:20;;;;;;;3.90;1.90;;;6.20;96.10;;;;;;5051376;28;20036;-72
2021/11/22 06:52:46;;;;;;;4.15;2.08;;;6.20;96.10;;;;;;5050977;28;20051;-71
2021/11/22 06:55:13;;;;;;;2.92;1.80;;;6.20;96.10;;;;;;5051049;28;20029;-71
2021/11/22 06:57:39;;;;;;;7.95;2.97;;;6.20;96.10;;;;;;5051183;28;20024;-72
2021/11/22 07:00:07;;;;;;;4.60;1.90;;;6.20;96.10;;;;;;5050986;28;20041;-70
2021/11/22 07:02:33;;;;;;;5.15;2.00;;;6.10;96.10;;;;;;5050883;28;20026;-71
2021/11/22 07:04:58;;;;;;;6.35;2.13;;;6.10;96.10;;;;;;5051066;28;20033;-71
2021/11/22 07:07:25;;;;;;;6.15;1.73;;;6.10;96.10;;;;;;5051100;28;20024;-75
2021/11/22 07:09:51;;;;;;;5.22;1.55;;;6.10;96.10;;;;;;5049890;28;20466;-75
2021/11/22 07:12:17;;;;;;;3.70;2.55;;;6.20;96.30;;;;;;5051761;28;20036;-75
2021/11/22 07:14:43;;;;;;;6.88;1.77;;;6.10;95.90;;;;;;5051439;28;20604;-74
2021/11/22 07:17:11;;;;;;;5.10;1.92;;;6.10;95.90;;;;;;5050247;28;20544;-75
2021/11/22 07:19:37;;;;;;;3.67;2.25;;;6.10;95.90;;;;;;5051190;28;20037;-74
2021/11/22 07:22:07;;;;;;;3.33;2.40;;;6.10;95.90;;;;;;5051126;28;20403;-76
2021/11/22 07:24:33;;;;;;;9.25;2.92;;;6.20;95.90;;;;;;5051067;28;20595;-75
2021/11/22 07:26:59;;;;;;;5.97;2.20;;;6.10;96.00;;;;;;5051559;28;20398;-76
2021/11/22 07:29:26;;;;;;;5.10;2.00;;;6.10;96.00;;;;;;5050762;28;20590;-74
2021/11/22 07:31:52;;;;;;;4.22;2.17;;;6.10;95.90;;;;;;5049921;28;20518;-75
2021/11/22 07:34:17;;;;;;;5.78;2.45;;;5.90;96.10;;;;;;5051040;28;20238;-74
2021/11/22 07:36:43;;;;;;;4.93;2.15;;;6.00;96.20;;;;;;5050929;28;20059;-75
2021/11/22 07:39:09;;;;;;;9.65;2.80;;;6.00;96.10;;;;;;5051586;28;20039;-76
2021/11/22 07:41:35;;;;;;;3.78;1.83;;;6.10;96.10;;;;;;5050664;28;20029;-75
2021/11/22 07:44:00;;;;;;;2.85;1.85;;;6.10;96.00;;;;;;5049541;28;20112;-75
2021/11/22 07:46:27;;;;;;;7.60;2.97;;;6.20;95.90;;;;;;5050797;28;20045;-74
2021/11/22 07:48:53;;;;;;;4.28;2.10;;;6.20;95.70;;;;;;5064207;28;20051;-72
2021/11/22 07:51:19;;;;;;;5.57;2.40;;;6.20;95.70;;;;;;5069635;28;20146;-74
2021/11/22 07:53:45;;;;;;;4.75;2.33;;;6.20;95.70;;;;;;5068818;28;20449;-75
2021/11/22 07:56:12;;;;;;;7.63;2.92;;;6.20;95.70;;;;;;5070165;28;20033;-74
2021/11/22 07:58:38;;;;;;;6.82;2.90;;;6.20;95.80;;;;;;5069904;28;20172;-74
2021/11/22 08:01:03;;;;;;;9.35;2.95;;;6.20;95.70;;;;;;5069946;28;20518;-75
2021/11/22 08:03:29;;;;;;;7.53;2.75;;;6.20;95.80;;;;;;5068810;28;20029;-74
2021/11/22 08:05:57;;;;;;;6.53;2.22;;;6.30;95.80;;;;;;5070266;28;20449;-75
2021/11/22 08:08:25;;;;;;;3.85;2.28;;;6.30;95.70;;;;;;5069888;28;20029;-72
2021/11/22 08:11:06;;;;;;;7.30;3.45;;;6.30;95.70;;;;;;5069505;28;20036;-76
2021/11/22 08:13:33;;;;;;;14.90;5.60;;;6.30;95.70;;;;;;5070006;28;20047;-72
2021/11/22 08:16:01;;;;;;;5.47;2.65;;;6.40;95.70;;;;;;5069635;28;20033;-75
2021/11/22 08:18:27;;;;;;;;;;;6.40;95.70;;;;;;5070595;28;20025;-73
2021/11/22 08:20:54;;;;;;;12.52;3.17;;;6.40;95.70;;;;;;5069851;28;19919;-74
2021/11/22 08:23:20;;;;;;;7.07;2.60;;;6.50;95.80;;;;;;5069956;28;20120;-74
2021/11/22 08:25:46;;;;;;;7.10;3.10;;;6.60;95.70;;;;;;5069602;28;20119;-74
2021/11/22 08:28:12;;;;;;;9.48;2.85;;;6.70;95.40;;;;;;5069680;28;20127;-75
2021/11/22 08:30:38;;;;;;;9.57;3.45;;;6.80;95.40;;;;;;5069954;28;20045;-75
2021/11/22 08:33:04;;;;;;;8.35;2.97;;;6.80;95.30;;;;;;5068809;28;20040;-75
2021/11/22 08:35:31;;;;;;;5.72;2.67;;;6.90;95.10;;;;;;5069618;28;20033;-74
2021/11/22 08:37:59;;;;;;;5.65;3.10;;;7.00;95.10;;;;;;5071917;28;20067;-75
2021/11/22 08:40:25;;;;;;;6.25;2.42;;;7.10;95.10;;;;;;5073455;28;20433;-75
2021/11/22 08:42:54;;;;;;;7.93;3.50;;;7.30;94.90;;;;;;5073491;28;20017;-74
2021/11/22 08:45:21;;;;;;;9.15;3.63;;;7.30;94.80;;;;;;5073740;28;20012;-74
2021/11/22 08:47:46;;;;;;;8.40;2.85;;;7.30;94.80;;;;;;5072880;28;20037;-74
2021/11/22 08:50:13;;;;;;;10.82;2.80;;;7.30;94.60;;;;;;5072815;28;20043;-75
2021/11/22 08:52:40;;;;;;;10.23;2.90;;;7.30;94.60;;;;;;5072850;28;20505;-74
2021/11/22 08:55:07;;;;;;;10.27;3.45;;;7.20;94.60;;;;;;5073027;28;20039;-75
2021/11/22 08:57:34;;;;;;;11.00;3.47;;;7.20;94.50;;;;;;5073542;28;20052;-74
2021/11/22 09:00:00;;;;;;;7.00;2.72;;;7.30;94.60;;;;;;5073285;28;20044;-74
2021/11/22 09:02:26;;;;;;;12.43;6.20;;;7.20;94.60;;;;;;5072967;28;20032;-74
2021/11/22 09:04:51;;;;;;;5.10;2.80;;;7.20;94.70;;;;;;5072783;28;20033;-74
2021/11/22 09:07:17;;;;;;;5.22;2.90;;;7.20;94.70;;;;;;5071841;28;20032;-75
2021/11/22 09:09:44;;;;;;;5.72;2.35;;;7.20;94.70;;;;;;5072987;28;20099;-74
2021/11/22 09:12:10;;;;;;;12.30;3.42;;;7.20;94.90;;;;;;5073145;28;20017;-74
2021/11/22 09:14:36;;;;;;;6.90;2.63;;;7.30;94.90;;;;;;5072769;28;20106;-75
2021/11/22 09:17:03;;;;;;;10.93;2.53;;;7.30;94.80;;;;;;5072800;28;20068;-74
2021/11/22 09:19:30;;;;;;;12.35;3.00;;;7.40;94.60;;;;;;5072950;28;20039;-73
2021/11/22 09:21:56;;;;;;;8.77;3.05;;;7.40;94.60;;;;;;5071263;28;20055;-74
2021/11/22 09:24:22;;;;;;;9.80;3.80;;;7.40;94.60;;;;;;5073056;28;20450;-74
2021/11/22 09:26:47;;;;;;;7.18;2.67;;;7.40;94.60;;;;;;5072742;28;20479;-73
2021/11/22 09:29:13;;;;;;;7.07;2.53;;;7.40;94.60;;;;;;5072522;28;20114;-75
2021/11/22 09:31:39;;;;;;;9.90;2.50;;;7.50;94.80;;;;;;5071034;28;20029;-75
2021/11/22 09:34:05;;;;;;;4.93;2.53;;;7.50;94.30;;;;;;5071262;28;20447;-73
2021/11/22 09:36:31;;;;;;;5.07;2.63;;;7.50;94.40;;;;;;5071885;28;20025;-72
2021/11/22 09:38:56;;;;;;;6.68;2.17;;;7.50;94.40;;;;;;5072081;28;20025;-72
2021/11/22 09:41:27;;;;;;;12.00;3.13;;;7.60;94.50;;;;;;5071897;28;20028;-71
2021/11/22 09:43:54;;;;;;;7.53;3.28;;;7.60;94.40;;;;;;5070802;28;20032;-74
2021/11/22 09:46:21;;;;;;;7.83;2.83;;;7.60;94.40;;;;;;5071007;28;20107;-71
2021/11/22 09:48:47;;;;;;;7.60;2.70;;;7.70;94.40;;;;;;5071732;28;20353;-74
2021/11/22 09:51:13;;;;;;;3.92;2.00;;;7.70;94.20;;;;;;5072113;28;20028;-75
2021/11/22 09:53:42;;;;;;;8.15;2.55;;;7.80;94.20;;;;;;5072002;28;20032;-74
2021/11/22 09:56:10;;;;;;;5.35;2.42;;;7.90;94.20;;;;;;5071687;28;20036;-74
2021/11/22 09:58:36;;;;;;;7.63;2.40;;;8.00;94.30;;;;;;5071870;28;20063;-75
2021/11/22 10:01:05;;;;;;;4.13;2.15;;;8.20;94.30;;;;;;5071790;28;20044;-75
2021/11/22 10:03:31;;;;;;;7.03;2.40;;;8.40;94.10;;;;;;5072446;28;20051;-74
2021/11/22 10:06:00;;;;;;;6.45;2.70;;;8.50;94.00;;;;;;5071826;28;20127;-75
2021/11/22 10:08:26;;;;;;;6.45;2.30;;;8.70;93.80;;;;;;5071918;28;20458;-76
2021/11/22 10:10:57;;;;;;;5.25;2.00;;;8.80;93.40;;;;;;5071624;28;20478;-76
2021/11/22 10:13:32;;;;;;;38.58;16.45;;;8.90;93.20;;;;;;5071785;28;20060;-75
2021/11/22 10:16:01;;;;;;;23.02;11.43;;;9.10;93.30;;;;;;5070534;28;20067;-76
2021/11/22 10:18:29;;;;;;;7.63;3.33;;;9.20;93.00;;;;;;5072103;28;20125;-76
2021/11/22 10:21:01;;;;;;;5.53;2.22;;;9.30;92.70;;;;;;5071258;28;20020;-76
2021/11/22 10:23:29;;;;;;;8.25;2.00;;;9.40;92.70;;;;;;5071231;28;20070;-73
2021/11/22 10:25:56;;;;;;;3.60;1.55;;;9.40;92.30;;;;;;5071023;28;20116;-73
2021/11/22 10:28:32;;;;;;;6.22;2.33;;;9.40;92.20;;;;;;5071314;28;20422;-75
2021/11/22 10:31:04;;;;;;;3.42;1.60;;;9.40;92.20;;;;;;5070894;28;20393;-74
2021/11/22 10:33:35;;;;;;;3.65;1.67;;;9.60;92.00;;;;;;5071519;28;20013;-76
2021/11/22 10:36:04;;;;;;;5.00;1.60;;;9.50;91.70;;;;;;5071017;28;20081;-78
2021/11/22 10:38:32;;;;;;;3.90;1.88;;;9.50;91.60;;;;;;5070983;28;20056;-77
2021/11/22 10:41:07;;;;;;;7.18;2.20;;;9.50;91.60;;;;;;5070893;28;20032;-76
2021/11/22 10:43:37;;;;;;;5.22;1.85;;;9.50;91.70;;;;;;5070860;28;20028;-76
2021/11/22 10:46:09;;;;;;;8.18;2.33;;;9.50;91.70;;;;;;5070698;28;20024;-74
2021/11/22 10:48:35;;;;;;;5.70;2.67;;;9.50;91.60;;;;;;5071298;28;20012;-75
2021/11/22 10:51:26;;;;;;;5.00;2.00;;;9.60;91.70;;;;;;5070869;28;20118;-75
2021/11/22 10:53:55;;;;;;;12.18;2.20;;;9.60;91.80;;;;;;5070615;28;20148;-74
2021/11/22 10:56:26;;;;;;;6.18;2.33;;;9.60;91.70;;;;;;5070412;28;20020;-73
2021/11/22 10:58:56;;;;;;;3.85;1.98;;;9.70;91.90;;;;;;5070378;28;20144;-72
2021/11/22 11:01:29;;;;;;;7.10;1.80;;;10.60;92.20;;;;;;5070453;28;20025;-77
2021/11/22 11:04:14;;;;;;;6.47;1.60;;;11.70;91.00;;;;;;5071174;28;20041;-75
2021/11/22 11:06:54;;;;;;;8.68;2.38;;;12.80;90.20;;;;;;5071121;28;20354;-75
2021/11/22 11:09:31;;;;;;;12.85;3.83;;;13.70;88.70;;;;;;5070397;28;20067;-74
2021/11/22 11:12:05;;;;;;;7.95;2.55;;;14.70;86.00;;;;;;5070782;28;20024;-74
2021/11/22 11:14:32;;;;;;;3.55;1.80;;;15.20;80.10;;;;;;5070509;28;20528;-76
2021/11/22 11:17:16;;;;;;;3.33;1.63;;;15.80;78.70;;;;;;5070586;28;20166;-78
2021/11/22 11:19:43;;;;;;;5.07;1.73;;;16.00;77.40;;;;;;5070601;28;20028;-75
2021/11/22 11:22:09;;;;;;;2.93;1.20;;;16.70;77.10;;;;;;5070673;28;20094;-75
2021/11/22 11:24:35;;;;;;;4.95;1.65;;;17.10;72.70;;;;;;5071313;28;20442;-76
2021/11/22 11:27:01;;;;;;;1.60;1.20;;;17.20;71.50;;;;;;5070633;28;20032;-75
2021/11/22 11:29:27;;;;;;;2.35;1.30;;;17.20;70.80;;;;;;5070273;28;20051;-74
2021/11/22 11:31:54;;;;;;;4.80;1.17;;;17.20;69.50;;;;;;5069526;28;20029;-75
2021/11/22 11:34:20;;;;;;;4.30;1.63;;;17.00;69.30;;;;;;5070428;28;20040;-75
2021/11/22 11:36:58;;;;;;;5.18;2.28;;;16.80;68.20;;;;;;5070639;28;20028;-76
2021/11/22 11:39:24;;;;;;;7.25;3.70;;;16.30;68.20;;;;;;5070778;28;20056;-75
2021/11/22 11:42:37;;;;;;;3.35;1.50;;;15.60;69.60;;;;;;5069143;28;20066;-76
2021/11/22 11:45:19;;;;;;;10.40;3.17;;;15.10;70.60;;;;;;5060699;28;20059;-73
2021/11/22 11:48:06;;;;;;;2.35;1.27;;;14.90;70.50;;;;;;5069988;28;20134;-73
2021/11/22 11:50:38;;;;;;;2.10;0.70;;;14.40;71.60;;;;;;5070125;28;20462;-72
2021/11/22 11:53:08;;;;;;;4.68;0.77;;;14.20;71.60;;;;;;5069961;28;20036;-71
2021/11/22 11:55:35;;;;;;;2.83;0.82;;;14.00;70.90;;;;;;5068584;28;20412;-71
2021/11/22 11:58:19;;;;;;;4.45;0.70;;;13.90;71.30;;;;;;5068289;28;20350;-71
2021/11/22 12:01:18;;;;;;;4.05;0.98;;;13.70;70.90;;;;;;5069706;28;20048;-71
2021/11/22 12:04:06;;;;;;;4.75;0.85;;;13.60;71.80;;;;;;5069701;28;20025;-72
2021/11/22 12:06:51;;;;;;;;;;;13.40;72.30;;;;;;5071268;28;20043;-75
2021/11/22 12:09:35;;;;;;;8.75;4.25;;;13.30;72.60;;;;;;5070120;28;19943;-74
2021/11/22 12:12:30;;;;;;;6.53;1.52;;;13.20;73.90;;;;;;5069901;28;20079;-72
2021/11/22 12:15:03;;;;;;;2.05;0.80;;;13.10;73.30;;;;;;5073800;28;20036;-75
2021/11/22 12:17:35;;;;;;;5.80;1.30;;;13.00;73.10;;;;;;5073875;28;20070;-75
2021/11/22 12:20:07;;;;;;;0.80;0.60;;;12.90;72.90;;;;;;5073568;28;20032;-75
2021/11/22 12:22:38;;;;;;;1.58;0.52;;;12.80;73.10;;;;;;5072775;28;20362;-74
2021/11/22 12:25:05;;;;;;;3.72;1.00;;;12.80;73.30;;;;;;5073587;28;20093;-73
2021/11/22 12:27:31;;;;;;;4.75;0.90;;;12.60;73.40;;;;;;5073951;28;20103;-74
2021/11/22 12:29:58;;;;;;;3.53;0.63;;;12.60;74.40;;;;;;5073248;28;20383;-73
2021/11/22 12:32:26;;;;;;;2.92;0.88;;;12.60;74.30;;;;;;5073260;28;20040;-75
2021/11/22 12:35:04;;;;;;;2.40;0.90;;;12.50;74.10;;;;;;5073843;28;20071;-73
2021/11/22 12:37:31;;;;;;;;;;;12.20;74.40;;;;;;5073664;28;20089;-74
2021/11/22 12:40:12;;;;;;;3.28;1.10;;;12.10;74.90;;;;;;5072282;28;19912;-75
2021/11/22 12:42:53;;;;;;;4.00;1.30;;;12.20;75.40;;;;;;5073719;28;20029;-75
2021/11/22 12:45:19;;;;;;;3.22;1.30;;;12.10;75.40;;;;;;5073345;28;20544;-74
2021/11/22 12:47:45;;;;;;;4.43;1.33;;;12.00;75.60;;;;;;5073479;28;20039;-76
2021/11/22 12:50:20;;;;;;;8.50;2.95;;;12.10;75.80;;;;;;5073051;28;20069;-75
2021/11/22 12:53:07;;;;;;;5.57;1.55;;;12.10;75.90;;;;;;5073383;28;20183;-73
2021/11/22 12:55:40;;;;;;;2.83;0.90;;;11.90;74.60;;;;;;5072973;28;20025;-74
2021/11/22 12:58:16;;;;;;;2.13;0.90;;;11.60;74.20;;;;;;5072998;28;20130;-76
2021/11/22 13:00:44;;;;;;;4.55;0.80;;;11.60;75.30;;;;;;5073562;28;20445;-74